Capelle-West, Netherlands
Current Conditions -  °F | °C
As of 3:55 AM on Monday 24 Nov 2014 (Local Time) from EHRD Reporting Station
Broken Clouds Broken Clouds  
Wind Chill: 44°   Ceiling: 3100
Heat Index: 48°   Visibility: 6mi
Dew Point: 45°   Wind: 9mph
Humidity: 87%   Direction: 300°WNW
Pressure: 30.12"   Gusts: NA
Location:  51.92°N, 4.57°E
Report Text: EHRD 240255Z AUTO 30008KT 260V330 9999 FEW014 SCT027 BKN03109/07 Q1020 REDZ NOSIG
Loading
Personal Weather Stations






























Interactive Weather Map New forecast layout! Learn more

10-Day Weather Forecast

Advertisements
Track Severe Weather on mobile